INFORMACIÓN METAR y TAF
METAR FOR LXGB
ADDS - METARS form results

(0936 UTC 15 November 2019)
Data provider http://aviationweather.gov/metar/data/
 
METAR text: LXGB 150925Z 29018G31KT 9999 FEW022 BKN220 13/05 Q1010 NOSIG RMK BLU BLU
Conditions at: LXGB (GIBRALTAR (CIV/M, GI) observed 0925 UTC 15 November 2019
Temperature: 13.0°C (55°F)
Dewpoint: 5.0°C (41°F) [RH = 58%]
Pressure (altimeter): 29.82 inches Hg (1010.0 mb)
Winds: from the WNW (290 degrees) at 21 MPH (18 knots; 9.3 m/s)
gusting to 36 MPH (31 knots; 15.9 m/s)
Visibility: 6 or more miles (10+ km)
Ceiling: 22000 feet AGL
Clouds: few clouds at 2200 feet AGL
broken clouds at 22000 feet AGL
Weather: no significant weather observed at this time

METAR text: LXGB 150850Z 29018G32KT 9999 FEW020 SCT220 12/05 Q1010 NOSIG RMK BLU BLU
Conditions at: LXGB (GIBRALTAR (CIV/M, GI) observed 0850 UTC 15 November 2019
Temperature: 12.0°C (54°F)
Dewpoint: 5.0°C (41°F) [RH = 62%]
Pressure (altimeter): 29.82 inches Hg (1010.0 mb)
Winds: from the WNW (290 degrees) at 21 MPH (18 knots; 9.3 m/s)
gusting to 37 MPH (32 knots; 16.5 m/s)
Visibility: 6 or more miles (10+ km)
Ceiling: at least 12,000 feet AGL
Clouds: few clouds at 2000 feet AGL
scattered clouds at 22000 feet AGL
Weather: no significant weather observed at this time

Forecast for: LXGB (GIBRALTAR (CIV/M, GI)
Text: TAF LXGB 150721Z 1509/1518 28018G28KT 9999 FEW030
Forecast period: 0900 to 1800 UTC 15 November 2019
Forecast type: FROM: standard forecast or significant change
Winds: from the W (280 degrees) at 21 MPH (18 knots; 9.3 m/s)
gusting to 32 MPH (28 knots; 14.4 m/s)
Visibility: 6 or more miles 10+ km)
Ceiling: at least 12,000 feet AGL
Clouds: few clouds at 3000 feet AGL
Weather: no significant weather forecast for this period

 MAPA DE AEROPUERTO

 INFORMACIÓN DE PISTA
Pista 09 Longitud 6000 ft Ancho 150 ft
Elevación 10 ft Umbral desplazado 302 ft Rumbo de pista 88
Pista 27 Longitud 6000 ft Ancho 150 ft
Elevación 11 ft Umbral desplazado 368 ft Rumbo de pista 268

 FRECUANCIAS DEL AEROPUERTO
Tipo A/D Nombre APP Frecuencia 122.8 MHZ
Tipo OPS Nombre GIB TALKDO Frecuencia 130.4 MHZ
Tipo TWR Nombre TWR Frecuencia 131.2 MHZ

 RADIO AYUDAS DEL AEROPUERTO
Tipo TACAN Nombre Gibraltar Frecuencia 113600 KHZ



Powered by Virtual Airlines Manager [v2.6.2]